Terminal Aerodrome Forecast
Issued by NWS Louisville, KY

Home | Current Version | Previous Version | Text Only | Print | Product List | Glossary On
Versions: 1 2 3 4 5 6 7 8 9 10 11 12 13 14 15 16 17 18 19
000
FTUS43 KLMK 142331
TAFLEX
TAF
KLEX 142331Z 1500/1524 08004KT P6SM SCT200
      TEMPO 1509/1513 6SM -SHSN OVC025
     FM151700 21014G24KT P6SM VCSH OVC050
     FM152300 24011KT 3SM -SHSN OVC020=

USA.gov is the U.S. government's official web portal to all federal, state and local government web resources and services.